createdAt,value
2017-09-16T00:00:56.378Z,14.00
2017-09-16T00:03:23.713Z,15.30
2017-09-16T00:05:51.067Z,15.50
2017-09-16T00:08:18.381Z,12.37
2017-09-16T00:10:46.681Z,12.63
2017-09-16T00:13:13.979Z,15.50
2017-09-16T00:15:46.988Z,14.43
2017-09-16T00:18:14.302Z,16.43
2017-09-16T00:20:41.617Z,14.43
2017-09-16T00:23:08.928Z,14.07
2017-09-16T00:25:36.248Z,14.90
2017-09-16T00:28:03.553Z,13.73
2017-09-16T00:30:30.873Z,13.40
2017-09-16T00:32:58.241Z,13.93
2017-09-16T00:35:25.625Z,13.90
2017-09-16T00:37:52.929Z,18.00
2017-09-16T00:40:20.282Z,20.83
2017-09-16T00:42:47.613Z,15.90
2017-09-16T00:45:14.982Z,13.83
2017-09-16T00:47:42.293Z,21.80
2017-09-16T00:50:09.640Z,16.47
2017-09-16T00:52:36.988Z,13.80
2017-09-16T00:55:04.300Z,21.00
2017-09-16T00:57:31.669Z,18.97
2017-09-16T01:00:00.126Z,14.17
2017-09-16T01:02:27.425Z,16.47
2017-09-16T01:04:54.728Z,17.13
2017-09-16T01:07:22.078Z,17.10
2017-09-16T01:09:49.377Z,15.77
2017-09-16T01:12:16.705Z,15.97
2017-09-16T01:14:44.014Z,15.23
2017-09-16T01:17:11.345Z,15.40
2017-09-16T01:19:38.656Z,17.20
2017-09-16T01:22:05.997Z,14.43
2017-09-16T01:24:33.316Z,14.93
2017-09-16T01:27:00.650Z,15.20
2017-09-16T01:29:27.948Z,15.47
2017-09-16T01:31:55.574Z,16.83
2017-09-16T01:34:22.913Z,15.63
2017-09-16T01:36:50.264Z,12.77
2017-09-16T01:39:17.591Z,12.10
2017-09-16T01:41:44.950Z,13.80
2017-09-16T01:44:12.296Z,13.00
2017-09-16T01:46:39.659Z,12.00
2017-09-16T01:49:06.940Z,14.57
2017-09-16T01:51:34.253Z,15.63
2017-09-16T01:54:01.548Z,13.17
2017-09-16T01:56:28.891Z,13.93
2017-09-16T01:58:56.205Z,13.83
2017-09-16T02:01:23.556Z,15.87
2017-09-16T02:03:50.894Z,14.50
2017-09-16T02:06:18.228Z,13.70
2017-09-16T02:08:46.730Z,13.00
2017-09-16T02:11:14.066Z,16.07
2017-09-16T02:13:41.396Z,12.70
2017-09-16T02:16:08.737Z,16.47
2017-09-16T02:18:36.048Z,13.63
2017-09-16T02:21:03.358Z,13.43
2017-09-16T02:23:30.676Z,15.50
2017-09-16T02:25:57.990Z,12.57
2017-09-16T02:28:25.624Z,16.90
2017-09-16T02:30:52.932Z,12.10
2017-09-16T02:33:20.954Z,12.00
2017-09-16T02:35:48.281Z,14.60
2017-09-16T02:38:15.638Z,14.77
2017-09-16T02:40:42.938Z,15.70
2017-09-16T02:43:10.241Z,13.03
2017-09-16T02:45:38.464Z,12.83
2017-09-16T02:48:05.833Z,15.27
2017-09-16T02:50:35.385Z,16.73
2017-09-16T02:53:02.712Z,15.43
2017-09-16T02:55:30.290Z,19.80
2017-09-16T02:57:57.645Z,16.53
2017-09-16T03:00:24.998Z,16.60
2017-09-16T03:02:52.296Z,14.43
2017-09-16T03:05:19.608Z,18.70
2017-09-16T03:07:46.930Z,22.17
2017-09-16T03:10:14.261Z,13.07
2017-09-16T03:12:41.570Z,14.70
2017-09-16T03:15:10.880Z,17.00
2017-09-16T03:17:38.219Z,14.10
2017-09-16T03:20:05.578Z,15.90
2017-09-16T03:22:32.876Z,13.23
2017-09-16T03:25:00.342Z,17.40
2017-09-16T03:27:27.669Z,13.10
2017-09-16T03:29:55.036Z,17.97
2017-09-16T03:32:22.353Z,18.30
2017-09-16T03:34:49.713Z,10.60
2017-09-16T03:37:17.037Z,18.13
2017-09-16T03:39:44.389Z,14.47
2017-09-16T03:42:11.732Z,17.37
2017-09-16T03:44:39.038Z,14.90
2017-09-16T03:47:07.329Z,16.20
2017-09-16T03:49:35.587Z,15.20
2017-09-16T03:52:02.950Z,14.23
2017-09-16T03:54:30.360Z,17.80
2017-09-16T03:56:57.739Z,15.60
2017-09-16T03:59:25.051Z,16.30
2017-09-16T04:01:58.377Z,15.67
2017-09-16T04:04:25.684Z,18.17
2017-09-16T04:06:53.044Z,18.90
2017-09-16T04:09:20.353Z,19.93
2017-09-16T04:11:47.705Z,45.13
2017-09-16T04:14:15.972Z,52.90
2017-09-16T04:16:43.313Z,46.20
2017-09-16T04:19:10.630Z,30.40
2017-09-16T04:21:38.017Z,25.80
2017-09-16T04:24:06.253Z,31.20
2017-09-16T04:26:33.605Z,23.30
2017-09-16T04:29:00.916Z,19.93
2017-09-16T04:31:28.277Z,18.80
2017-09-16T04:33:55.709Z,20.53
2017-09-16T04:36:23.065Z,15.87
2017-09-16T04:38:50.370Z,18.30
2017-09-16T04:41:17.700Z,20.30
2017-09-16T04:43:45.012Z,23.73
2017-09-16T04:46:14.300Z,20.43
2017-09-16T04:48:41.656Z,18.80
2017-09-16T04:51:08.993Z,23.20
2017-09-16T04:53:36.313Z,18.27
2017-09-16T04:56:03.640Z,21.83
2017-09-16T04:58:30.961Z,20.03
2017-09-16T05:00:58.322Z,18.53
2017-09-16T05:03:25.840Z,20.53
2017-09-16T05:05:53.180Z,17.03
2017-09-16T05:08:20.505Z,18.40
2017-09-16T05:10:47.816Z,18.67
2017-09-16T05:13:15.152Z,20.70
2017-09-16T05:15:42.480Z,17.77
2017-09-16T05:18:09.804Z,15.33
2017-09-16T05:20:37.138Z,17.00
2017-09-16T05:23:04.497Z,18.10
2017-09-16T05:25:31.812Z,20.83
2017-09-16T05:27:59.174Z,20.47
2017-09-16T05:30:28.740Z,16.57
2017-09-16T05:32:56.080Z,16.77
2017-09-16T05:35:23.409Z,18.00
2017-09-16T05:37:50.788Z,20.33
2017-09-16T05:40:18.136Z,18.50
2017-09-16T05:42:45.493Z,19.13
2017-09-16T05:45:12.819Z,19.63
2017-09-16T05:47:40.157Z,23.97
2017-09-16T05:50:08.346Z,18.07
2017-09-16T05:52:35.663Z,16.10
2017-09-16T05:55:05.672Z,19.40
2017-09-16T05:57:33.368Z,18.20
2017-09-16T06:00:00.726Z,17.03
2017-09-16T06:02:28.024Z,17.43
2017-09-16T06:04:55.344Z,17.87
2017-09-16T06:07:22.651Z,20.23
2017-09-16T06:09:49.964Z,20.80
2017-09-16T06:12:17.348Z,16.70
2017-09-16T06:14:44.691Z,16.77
2017-09-16T06:17:12.101Z,18.37
2017-09-16T06:19:39.431Z,18.57
2017-09-16T06:22:06.924Z,19.73
2017-09-16T06:24:34.290Z,18.40
2017-09-16T06:27:01.602Z,18.80
2017-09-16T06:29:28.951Z,18.80
2017-09-16T06:31:56.289Z,16.43
2017-09-16T06:34:23.619Z,17.50
2017-09-16T06:36:50.934Z,20.60
2017-09-16T06:39:18.291Z,16.97
2017-09-16T06:41:45.609Z,17.20
2017-09-16T06:44:12.928Z,16.50
2017-09-16T06:46:40.632Z,15.47
2017-09-16T06:49:08.003Z,16.30
2017-09-16T06:51:35.366Z,13.67
2017-09-16T06:54:02.672Z,13.87
2017-09-16T06:56:30.030Z,16.63
2017-09-16T06:58:57.339Z,16.37
2017-09-16T07:01:24.695Z,17.10
2017-09-16T07:03:52.037Z,14.80
2017-09-16T07:06:19.378Z,17.40
2017-09-16T07:08:46.702Z,15.40
2017-09-16T07:11:14.056Z,12.10
2017-09-16T07:13:41.392Z,18.40
2017-09-16T07:16:09.582Z,13.37
2017-09-16T07:18:36.895Z,14.00
2017-09-16T07:21:04.305Z,11.67
2017-09-16T07:23:31.591Z,14.43
2017-09-16T07:25:58.944Z,13.87
2017-09-16T07:28:26.228Z,12.70
2017-09-16T07:30:53.554Z,15.10
2017-09-16T07:33:20.854Z,14.87
2017-09-16T07:35:49.088Z,11.07
2017-09-16T07:38:16.454Z,11.67
2017-09-16T07:40:43.798Z,12.23
2017-09-16T07:43:11.171Z,12.80
2017-09-16T07:45:38.498Z,13.20
2017-09-16T07:48:06.116Z,13.57
2017-09-16T07:50:33.445Z,13.43
2017-09-16T07:53:00.816Z,11.37
2017-09-16T07:55:28.140Z,12.73
2017-09-16T07:57:55.472Z,10.53
2017-09-16T08:00:22.792Z,11.30
2017-09-16T08:02:50.133Z,12.00
2017-09-16T08:05:17.431Z,12.87
2017-09-16T08:07:44.759Z,9.83
2017-09-16T08:10:12.090Z,12.03
2017-09-16T08:12:39.459Z,12.53
2017-09-16T08:15:06.806Z,11.33
2017-09-16T08:17:34.105Z,11.40
2017-09-16T08:20:01.411Z,16.83
2017-09-16T08:22:28.726Z,10.20
2017-09-16T08:24:56.046Z,13.30
2017-09-16T08:27:23.356Z,12.07
2017-09-16T08:29:50.703Z,11.60
2017-09-16T08:32:18.052Z,12.00
2017-09-16T08:34:45.391Z,10.27
2017-09-16T08:37:12.711Z,9.47
2017-09-16T08:39:40.016Z,10.93
2017-09-16T08:42:07.322Z,12.10
2017-09-16T08:44:34.652Z,9.93
2017-09-16T08:47:01.984Z,10.90
2017-09-16T08:49:29.334Z,9.53
2017-09-16T08:51:56.662Z,12.50
2017-09-16T08:54:23.987Z,9.80
2017-09-16T08:56:51.284Z,11.20
2017-09-16T08:59:18.799Z,11.57
2017-09-16T09:01:46.120Z,8.63
2017-09-16T09:04:13.432Z,8.53
2017-09-16T09:06:40.733Z,11.70
2017-09-16T09:09:08.059Z,7.87
2017-09-16T09:11:35.384Z,9.90
2017-09-16T09:14:02.740Z,7.97
2017-09-16T09:16:30.091Z,10.77
2017-09-16T09:18:57.450Z,7.40
2017-09-16T09:21:24.752Z,10.17
2017-09-16T09:23:52.208Z,8.07
2017-09-16T09:26:19.573Z,8.30
2017-09-16T09:28:46.862Z,7.90
2017-09-16T09:31:14.173Z,9.73
2017-09-16T09:33:41.476Z,9.10
2017-09-16T09:36:08.833Z,12.37
2017-09-16T09:38:36.147Z,8.50
2017-09-16T09:41:03.452Z,8.57
2017-09-16T09:43:30.749Z,7.60
2017-09-16T09:45:58.078Z,7.40
2017-09-16T09:48:25.400Z,7.30
2017-09-16T09:50:52.709Z,6.20
2017-09-16T09:53:19.997Z,7.20
2017-09-16T09:55:47.340Z,6.70
2017-09-16T09:58:14.665Z,7.13
2017-09-16T10:00:42.051Z,6.70
2017-09-16T10:03:09.358Z,6.70
2017-09-16T10:05:36.818Z,6.17
2017-09-16T10:08:04.134Z,6.40
2017-09-16T10:10:31.474Z,7.57
2017-09-16T10:12:58.777Z,4.30
2017-09-16T10:15:26.158Z,5.00
2017-09-16T10:17:53.468Z,6.60
2017-09-16T10:20:20.767Z,9.43
2017-09-16T10:22:48.084Z,4.87
2017-09-16T10:25:15.401Z,5.60
2017-09-16T10:27:42.708Z,6.00
2017-09-16T10:30:10.038Z,5.90
2017-09-16T10:32:37.370Z,9.30
2017-09-16T10:35:04.672Z,8.20
2017-09-16T10:37:31.993Z,5.83
2017-09-16T10:39:59.283Z,5.63
2017-09-16T10:42:26.631Z,4.27
2017-09-16T10:44:53.925Z,5.73
2017-09-16T10:47:21.292Z,5.57
2017-09-16T10:49:48.591Z,7.40
2017-09-16T10:52:15.889Z,6.43
2017-09-16T10:54:43.254Z,3.97
2017-09-16T10:57:10.583Z,6.30
2017-09-16T10:59:37.934Z,4.67
2017-09-16T11:02:05.234Z,7.00
2017-09-16T11:04:32.589Z,8.03
2017-09-16T11:06:59.880Z,4.10
2017-09-16T11:09:27.225Z,7.23
2017-09-16T11:11:54.821Z,5.67
2017-09-16T11:14:22.199Z,6.33
2017-09-16T11:16:49.510Z,4.93
2017-09-16T11:19:16.854Z,4.13
2017-09-16T11:21:44.250Z,4.63
2017-09-16T11:24:11.585Z,4.50
2017-09-16T11:26:38.966Z,4.57
2017-09-16T11:29:06.309Z,4.90
2017-09-16T11:31:33.633Z,3.90
2017-09-16T11:34:01.000Z,4.10
2017-09-16T11:36:28.280Z,6.63
2017-09-16T11:38:55.680Z,5.07
2017-09-16T11:41:22.973Z,6.60
2017-09-16T11:43:50.281Z,3.53
2017-09-16T11:46:17.588Z,4.13
2017-09-16T11:48:44.942Z,4.10
2017-09-16T11:51:12.594Z,5.10
2017-09-16T11:53:39.947Z,6.03
2017-09-16T11:56:07.308Z,4.80
2017-09-16T11:58:34.604Z,5.30
2017-09-16T12:01:01.908Z,4.83
2017-09-16T12:03:29.257Z,4.77
2017-09-16T12:05:56.558Z,4.13
2017-09-16T12:08:23.848Z,5.00
2017-09-16T12:10:51.153Z,7.17
2017-09-16T12:13:18.449Z,4.10
2017-09-16T12:15:45.798Z,4.30
2017-09-16T12:18:13.145Z,5.20
2017-09-16T12:20:40.448Z,5.03
2017-09-16T12:23:07.783Z,4.87
2017-09-16T12:25:35.073Z,6.10
2017-09-16T12:28:02.741Z,5.93
2017-09-16T12:30:31.027Z,4.27
2017-09-16T12:32:58.348Z,4.00
2017-09-16T12:35:25.660Z,6.80
2017-09-16T12:37:53.000Z,5.23
2017-09-16T12:40:20.312Z,5.07
2017-09-16T12:42:47.638Z,3.83
2017-09-16T12:45:14.966Z,5.20
2017-09-16T12:47:42.294Z,4.27
2017-09-16T12:50:09.580Z,3.03
2017-09-16T12:52:37.138Z,3.93
2017-09-16T12:55:04.464Z,3.20
2017-09-16T12:57:31.790Z,3.80
2017-09-16T12:59:59.086Z,4.03
2017-09-16T13:02:26.388Z,2.93
2017-09-16T13:04:53.686Z,3.23
2017-09-16T13:07:21.903Z,3.17
2017-09-16T13:09:49.193Z,2.60
2017-09-16T13:12:16.514Z,3.57
2017-09-16T13:14:43.814Z,2.83
2017-09-16T13:17:11.147Z,8.17
2017-09-16T13:19:38.440Z,2.80
2017-09-16T13:22:05.742Z,2.93
2017-09-16T13:24:33.084Z,2.77
2017-09-16T13:27:00.383Z,4.23
2017-09-16T13:29:27.704Z,4.90
2017-09-16T13:31:55.016Z,3.10
2017-09-16T13:34:22.388Z,3.33
2017-09-16T13:36:49.682Z,4.07
2017-09-16T13:39:17.048Z,5.77
2017-09-16T13:41:44.356Z,2.30
2017-09-16T13:44:11.674Z,5.50
2017-09-16T13:46:38.988Z,2.33
2017-09-16T13:49:06.293Z,3.93
2017-09-16T13:51:33.623Z,2.50
2017-09-16T13:54:01.193Z,3.07
2017-09-16T13:56:28.815Z,2.90
2017-09-16T13:58:56.479Z,2.83
2017-09-16T14:01:23.796Z,3.63
2017-09-16T14:03:51.100Z,3.20
2017-09-16T14:06:18.411Z,3.53
2017-09-16T14:08:45.848Z,5.53
2017-09-16T14:11:13.173Z,3.20
2017-09-16T14:13:40.462Z,2.43
2017-09-16T14:16:07.777Z,5.50
2017-09-16T14:18:35.103Z,2.67
2017-09-16T14:21:02.400Z,3.03
2017-09-16T14:23:29.689Z,2.67
2017-09-16T14:25:57.037Z,2.37
2017-09-16T14:28:24.366Z,2.60
2017-09-16T14:30:51.714Z,3.00
2017-09-16T14:33:19.068Z,3.13
2017-09-16T14:35:46.398Z,3.03
2017-09-16T14:38:13.707Z,2.40
2017-09-16T14:40:41.016Z,4.70
2017-09-16T14:43:08.304Z,2.60
2017-09-16T14:45:35.618Z,2.40
2017-09-16T14:48:03.742Z,3.63
2017-09-16T14:50:31.270Z,2.73
2017-09-16T14:52:58.571Z,3.73
2017-09-16T14:55:25.875Z,3.53
2017-09-16T14:57:53.174Z,2.43
2017-09-16T15:00:20.521Z,3.43
2017-09-16T15:02:47.854Z,3.37
2017-09-16T15:05:15.156Z,4.60
2017-09-16T15:07:42.462Z,2.43
2017-09-16T15:10:09.796Z,4.30
2017-09-16T15:12:37.108Z,3.00
2017-09-16T15:15:04.444Z,2.90
2017-09-16T15:17:31.723Z,2.60
2017-09-16T15:19:59.034Z,2.90
2017-09-16T15:22:26.614Z,4.20
2017-09-16T15:24:53.924Z,5.07
2017-09-16T15:27:21.383Z,2.83
2017-09-16T15:29:48.697Z,3.37
2017-09-16T15:32:15.999Z,4.33
2017-09-16T15:34:43.294Z,2.97
2017-09-16T15:37:10.636Z,3.43
2017-09-16T15:39:37.978Z,4.80
2017-09-16T15:42:05.338Z,3.03
2017-09-16T15:44:32.640Z,4.17
2017-09-16T15:46:59.943Z,3.97
2017-09-16T15:49:27.238Z,4.33
2017-09-16T15:51:54.581Z,4.57
2017-09-16T15:54:21.917Z,3.73
2017-09-16T15:56:49.270Z,4.67
2017-09-16T15:59:16.590Z,4.33
2017-09-16T16:01:43.896Z,3.90
2017-09-16T16:04:11.374Z,3.00
2017-09-16T16:06:38.661Z,2.80
2017-09-16T16:09:05.974Z,3.33
2017-09-16T16:11:33.288Z,3.37
2017-09-16T16:14:00.634Z,10.00
2017-09-16T16:16:27.916Z,4.73
2017-09-16T16:18:55.262Z,4.70
2017-09-16T16:21:23.704Z,3.40
2017-09-16T16:23:51.052Z,3.87
2017-09-16T16:26:18.364Z,4.53
2017-09-16T16:28:45.674Z,5.33
2017-09-16T16:31:13.048Z,4.70
2017-09-16T16:33:40.370Z,4.90
2017-09-16T16:36:07.659Z,3.50
2017-09-16T16:38:35.016Z,4.23
2017-09-16T16:41:02.322Z,6.60
2017-09-16T16:43:29.681Z,5.00
2017-09-16T16:45:56.984Z,5.43
2017-09-16T16:48:24.282Z,4.70
2017-09-16T16:50:51.606Z,7.40
2017-09-16T16:53:18.919Z,6.20
2017-09-16T16:55:46.220Z,4.50
2017-09-16T16:58:14.416Z,6.73
2017-09-16T17:00:41.728Z,5.70
2017-09-16T17:03:09.012Z,7.67
2017-09-16T17:05:36.378Z,6.17
2017-09-16T17:08:04.804Z,4.37
2017-09-16T17:10:32.293Z,6.20
2017-09-16T17:12:59.580Z,7.73
2017-09-16T17:15:26.898Z,6.53
2017-09-16T17:17:54.206Z,8.10
2017-09-16T17:20:21.547Z,10.00
2017-09-16T17:22:48.862Z,5.47
2017-09-16T17:25:16.160Z,7.40
2017-09-16T17:27:43.456Z,7.40
2017-09-16T17:30:10.788Z,5.83
2017-09-16T17:32:38.135Z,9.93
2017-09-16T17:35:05.477Z,11.63
2017-09-16T17:37:32.806Z,5.50
2017-09-16T17:40:00.133Z,8.60
2017-09-16T17:42:27.424Z,12.33
2017-09-16T17:44:55.185Z,7.73
2017-09-16T17:47:22.474Z,9.37
2017-09-16T17:49:49.777Z,9.23
2017-09-16T17:52:17.095Z,7.43
2017-09-16T17:54:44.387Z,9.53
2017-09-16T17:57:11.707Z,15.40
2017-09-16T17:59:39.012Z,14.37
2017-09-16T18:02:06.333Z,12.40
2017-09-16T18:04:33.710Z,15.43
2017-09-16T18:07:01.080Z,17.23
2017-09-16T18:09:28.457Z,14.97
2017-09-16T18:11:55.805Z,15.37
2017-09-16T18:14:23.136Z,21.90
2017-09-16T18:16:50.782Z,16.03
2017-09-16T18:19:18.120Z,20.03
2017-09-16T18:21:45.682Z,15.53
2017-09-16T18:24:13.000Z,21.40
2017-09-16T18:26:40.322Z,17.97
2017-09-16T18:29:07.649Z,14.30
2017-09-16T18:31:34.986Z,16.97
2017-09-16T18:34:03.202Z,17.80
2017-09-16T18:36:30.526Z,20.90
2017-09-16T18:38:57.842Z,19.53
2017-09-16T18:41:25.166Z,24.37
2017-09-16T18:43:53.382Z,22.70
2017-09-16T18:46:20.753Z,25.70
2017-09-16T18:48:48.060Z,21.17
2017-09-16T18:51:15.407Z,24.07
2017-09-16T18:53:42.941Z,22.30
2017-09-16T18:56:10.251Z,24.03
2017-09-16T18:58:37.593Z,30.10
2017-09-16T19:01:04.921Z,24.67
2017-09-16T19:03:32.248Z,25.73
2017-09-16T19:05:59.577Z,23.73
2017-09-16T19:08:26.934Z,24.33
2017-09-16T19:10:54.271Z,24.20
2017-09-16T19:13:21.620Z,29.57
2017-09-16T19:15:48.928Z,27.93
2017-09-16T19:18:16.313Z,24.93
2017-09-16T19:20:43.618Z,28.13
2017-09-16T19:23:10.943Z,27.10
2017-09-16T19:25:38.280Z,31.00
2017-09-16T19:28:05.648Z,27.67
2017-09-16T19:30:33.000Z,32.40
2017-09-16T19:33:00.320Z,30.80
2017-09-16T19:35:27.715Z,27.50
2017-09-16T19:37:55.049Z,27.70
2017-09-16T19:40:22.388Z,28.57
2017-09-16T19:42:49.733Z,34.10
2017-09-16T19:45:17.081Z,30.23
2017-09-16T19:47:44.386Z,33.47
2017-09-16T19:50:11.700Z,36.57
2017-09-16T19:52:39.050Z,39.43
2017-09-16T19:55:07.656Z,35.40
2017-09-16T19:57:34.969Z,34.73
2017-09-16T20:00:02.365Z,35.03
2017-09-16T20:02:29.677Z,31.63
2017-09-16T20:04:57.010Z,37.03
2017-09-16T20:07:24.327Z,35.87
2017-09-16T20:09:51.684Z,31.13
2017-09-16T20:12:19.006Z,30.93
2017-09-16T20:14:46.577Z,35.90
2017-09-16T20:17:13.876Z,33.60
2017-09-16T20:19:41.184Z,36.07
2017-09-16T20:22:08.656Z,36.13
2017-09-16T20:24:36.006Z,42.83
2017-09-16T20:27:03.468Z,35.63
2017-09-16T20:29:30.790Z,38.53
2017-09-16T20:31:58.144Z,37.90
2017-09-16T20:34:25.483Z,34.10
2017-09-16T20:36:52.827Z,36.83
2017-09-16T20:39:20.153Z,29.00
2017-09-16T20:41:47.512Z,26.57
2017-09-16T20:44:14.836Z,23.40
2017-09-16T20:46:42.197Z,19.17
2017-09-16T20:49:09.505Z,28.07
2017-09-16T20:51:36.838Z,20.20
2017-09-16T20:54:04.142Z,20.20
2017-09-16T20:56:31.760Z,21.50
2017-09-16T20:58:59.089Z,18.73
2017-09-16T21:01:26.455Z,22.03
2017-09-16T21:03:53.779Z,19.73
2017-09-16T21:06:21.151Z,17.43
2017-09-16T21:08:48.491Z,15.73
2017-09-16T21:11:15.819Z,16.33
2017-09-16T21:13:43.165Z,18.47
2017-09-16T21:16:10.492Z,16.90
2017-09-16T21:18:37.862Z,19.17
2017-09-16T21:21:05.170Z,17.97
2017-09-16T21:23:32.652Z,21.27
2017-09-16T21:25:59.965Z,20.47
2017-09-16T21:28:27.315Z,21.70
2017-09-16T21:30:54.624Z,20.67
2017-09-16T21:33:21.975Z,27.23
2017-09-16T21:35:49.315Z,28.70
2017-09-16T21:38:16.672Z,24.00
2017-09-16T21:40:44.921Z,28.50
2017-09-16T21:43:12.258Z,27.27
2017-09-16T21:45:39.610Z,26.10
2017-09-16T21:48:06.979Z,23.80
2017-09-16T21:50:34.314Z,21.30
2017-09-16T21:53:02.756Z,27.90
2017-09-16T21:55:30.134Z,29.30
2017-09-16T21:57:57.439Z,24.83
2017-09-16T22:00:24.815Z,27.90
2017-09-16T22:02:53.039Z,27.90
2017-09-16T22:05:20.370Z,25.47
2017-09-16T22:07:47.676Z,28.50
2017-09-16T22:10:14.991Z,29.20
2017-09-16T22:12:42.304Z,29.77
2017-09-16T22:15:09.662Z,29.93
2017-09-16T22:17:37.914Z,24.97
2017-09-16T22:20:05.266Z,27.70
2017-09-16T22:22:32.596Z,25.40
2017-09-16T22:24:59.928Z,25.97
2017-09-16T22:27:27.356Z,26.53
2017-09-16T22:29:54.678Z,26.67
2017-09-16T22:32:21.986Z,29.47
2017-09-16T22:34:49.311Z,27.73
2017-09-16T22:37:16.612Z,30.70
2017-09-16T22:39:43.958Z,26.23
2017-09-16T22:42:11.270Z,28.10
2017-09-16T22:44:38.578Z,29.00
2017-09-16T22:47:05.922Z,26.83
2017-09-16T22:49:33.243Z,30.10
2017-09-16T22:52:00.597Z,30.33
2017-09-16T22:54:27.924Z,33.50
2017-09-16T22:56:55.294Z,30.17
2017-09-16T22:59:22.622Z,34.67
2017-09-16T23:01:50.228Z,31.60
2017-09-16T23:04:17.542Z,31.70
2017-09-16T23:06:44.875Z,31.50
2017-09-16T23:09:12.186Z,30.50
2017-09-16T23:11:39.534Z,39.17
2017-09-16T23:14:06.854Z,35.33
2017-09-16T23:16:34.204Z,33.33
2017-09-16T23:19:01.537Z,36.43
2017-09-16T23:21:28.902Z,37.63
2017-09-16T23:23:56.228Z,33.67
2017-09-16T23:26:23.566Z,29.27
2017-09-16T23:28:50.913Z,31.70
2017-09-16T23:31:18.247Z,33.30
2017-09-16T23:33:45.603Z,35.33
2017-09-16T23:36:12.939Z,33.33
2017-09-16T23:38:40.268Z,34.70
2017-09-16T23:41:07.614Z,40.23
2017-09-16T23:43:34.963Z,34.87
2017-09-16T23:46:02.286Z,34.83
2017-09-16T23:48:29.642Z,39.40
2017-09-16T23:50:57.382Z,32.07
2017-09-16T23:53:24.737Z,31.00
2017-09-16T23:55:52.066Z,35.57
2017-09-16T23:58:19.418Z,34.50
